Fern Park, Florida
Current Conditions -  °F | °C
As of 12:53 PM on Monday 26 Jan 2015 (Local Time) from KORL Reporting Station
Few Clouds Few Clouds  
Wind Chill: 65°   Ceiling: Unl
Heat Index: 65°   Visibility: 10mi
Dew Point: 41°   Wind: 29mph
Humidity: 42%   Direction: 280°W
Pressure: 29.85"   Gusts: 36mph
Location:  28.653°N, 81.3426°W
Report Text: KORL 261753Z 28025G31KT 10SM FEW050 18/05 A2985 RMK AO2 PK WND 27031/1748 SLP114 60001 T01830050 10189 20139 58017
Loading
Personal Weather Stations






























Interactive Weather Map New forecast layout! Learn more

10-Day Weather Forecast

Advertisements
Track Severe Weather on mobile